Time;durP1;ratioP1;P1;durP2;ratioP2;P2;SDS_P1;SDS_P2;PMS_P1;PMS_P2;Temp;Humidity;BMP_temperature;BMP_pressure;BME280_temperature;BME280_humidity;BME280_pressure;Samples;Min_cycle;Max_cycle;Signal;HPM_P1;HPM_P2
2023/07/12 00:00:40;;;;;;;4.53;2.30;;;;;;;23.59;100.00;99634.50;5072998;28;20035;-63
2023/07/12 00:03:06;;;;;;;5.22;2.53;;;;;;;23.57;100.00;99631.94;5073055;28;20044;-63
2023/07/12 00:05:31;;;;;;;4.70;2.30;;;;;;;23.58;100.00;99630.03;5086615;28;20028;-63
2023/07/12 00:07:56;;;;;;;4.10;2.33;;;;;;;23.65;100.00;99625.78;5087214;28;20020;-64
2023/07/12 00:10:29;;;;;;;5.20;2.30;;;;;;;23.68;100.00;99634.50;5085911;28;20122;-63
2023/07/12 00:12:55;;;;;;;5.72;3.10;;;;;;;23.67;100.00;99623.78;5085472;28;20028;-63
2023/07/12 00:15:24;;;;;;;5.03;2.55;;;;;;;23.71;100.00;99611.63;5088450;28;20028;-63
2023/07/12 00:17:51;;;;;;;3.60;2.25;;;;;;;23.70;100.00;99609.91;5087918;28;20065;-63
2023/07/12 00:20:20;;;;;;;4.68;2.55;;;;;;;23.69;100.00;99616.34;5089255;28;20024;-63
2023/07/12 00:22:46;;;;;;;8.38;2.50;;;;;;;23.68;100.00;99598.31;5088535;28;20019;-62
2023/07/12 00:25:12;;;;;;;6.15;2.42;;;;;;;23.69;100.00;99592.75;5089976;28;20484;-63
2023/07/12 00:27:38;;;;;;;4.85;2.45;;;;;;;23.66;100.00;99595.75;5092877;28;20035;-64
2023/07/12 00:30:17;;;;;;;6.63;2.83;;;;;;;23.61;100.00;99602.63;5092429;28;20028;-63
2023/07/12 00:32:42;;;;;;;4.38;2.40;;;;;;;23.55;100.00;99606.75;5092519;28;20416;-63
2023/07/12 00:35:12;;;;;;;6.43;3.17;;;;;;;23.60;100.00;99618.06;5091205;28;20114;-63
2023/07/12 00:37:38;;;;;;;6.25;3.08;;;;;;;23.65;100.00;99604.03;5091440;28;20363;-64
2023/07/12 00:40:18;;;;;;;4.93;2.15;;;;;;;23.52;100.00;99560.03;5091629;28;20024;-63
2023/07/12 00:42:46;;;;;;;4.45;2.38;;;;;;;23.57;100.00;99571.31;5091029;28;20075;-63
2023/07/12 00:45:12;;;;;;;5.05;2.42;;;;;;;23.56;100.00;99566.91;5076367;28;20082;-63
2023/07/12 00:47:39;;;;;;;4.75;2.13;;;;;;;23.60;100.00;99622.63;5072033;28;20066;-63
2023/07/12 00:50:19;;;;;;;4.60;2.13;;;;;;;23.62;100.00;99604.34;5089688;28;20054;-63
2023/07/12 00:52:45;;;;;;;4.60;2.80;;;;;;;23.64;100.00;99575.19;5091420;28;20071;-63
2023/07/12 00:55:48;;;;;;;4.70;2.20;;;;;;;23.61;100.00;99557.31;5090502;28;20044;-63
2023/07/12 00:58:13;;;;;;;6.50;2.55;;;;;;;23.60;100.00;99552.00;5079306;28;20024;-63
2023/07/12 01:00:39;;;;;;;5.18;2.33;;;;;;;23.62;100.00;99539.16;5090902;28;20106;-63
2023/07/12 01:03:05;;;;;;;4.47;2.20;;;;;;;23.65;100.00;99530.72;5090310;28;20104;-64
2023/07/12 01:05:31;;;;;;;3.83;2.08;;;;;;;23.68;100.00;99503.25;5092385;28;20028;-63
2023/07/12 01:07:57;;;;;;;7.03;2.10;;;;;;;23.62;100.00;99485.72;5091014;28;20027;-63
2023/07/12 01:10:22;;;;;;;4.22;2.42;;;;;;;23.60;100.00;99497.72;5092032;28;20169;-63
2023/07/12 01:12:48;;;;;;;4.40;2.03;;;;;;;23.53;100.00;99507.41;5092038;28;20468;-64
2023/07/12 01:15:14;;;;;;;4.43;2.00;;;;;;;23.49;100.00;99506.00;5090527;28;20059;-63
2023/07/12 01:17:40;;;;;;;5.10;2.38;;;;;;;23.46;100.00;99511.72;5091557;28;20059;-63
2023/07/12 01:20:07;;;;;;;5.00;2.00;;;;;;;23.32;100.00;99505.72;5091977;28;20751;-63
2023/07/12 01:22:32;;;;;;;5.15;2.53;;;;;;;23.37;100.00;99499.88;5091557;28;20116;-63
2023/07/12 01:24:57;;;;;;;5.68;2.20;;;;;;;23.33;100.00;99507.44;5087674;28;20178;-63
2023/07/12 01:27:25;;;;;;;5.18;2.40;;;;;;;23.33;100.00;99510.16;5091490;28;20102;-63
2023/07/12 01:29:52;;;;;;;9.43;3.05;;;;;;;23.33;100.00;99523.72;5091671;28;20073;-63
2023/07/12 01:32:18;;;;;;;7.97;2.72;;;;;;;23.32;100.00;99522.03;5090692;28;20027;-64
2023/07/12 01:34:44;;;;;;;4.70;2.50;;;;;;;23.31;100.00;99530.31;5089449;28;20031;-63
2023/07/12 01:37:09;;;;;;;4.75;2.33;;;;;;;23.31;100.00;99531.13;5089357;28;20028;-64
2023/07/12 01:39:35;;;;;;;5.50;2.22;;;;;;;23.25;100.00;99536.25;5089532;28;20353;-63
2023/07/12 01:42:01;;;;;;;5.43;2.30;;;;;;;23.22;100.00;99545.53;5090394;28;20396;-64
2023/07/12 01:44:26;;;;;;;4.47;1.90;;;;;;;23.20;100.00;99547.53;5086709;28;20023;-64
2023/07/12 01:46:52;;;;;;;4.78;2.13;;;;;;;23.21;100.00;99557.38;5090139;28;20484;-64
2023/07/12 01:49:17;;;;;;;4.72;2.10;;;;;;;23.22;100.00;99548.25;5090337;28;20031;-63
2023/07/12 01:51:43;;;;;;;7.55;3.28;;;;;;;23.19;100.00;99559.41;5090393;28;20069;-63
2023/07/12 01:54:08;;;;;;;4.97;2.00;;;;;;;23.22;100.00;99548.25;5089830;28;20460;-63
2023/07/12 01:56:34;;;;;;;6.53;2.22;;;;;;;23.18;100.00;99557.66;5090019;28;20024;-64
2023/07/12 01:58:59;;;;;;;5.28;2.30;;;;;;;23.17;100.00;99547.81;5089508;28;20092;-63
2023/07/12 02:01:25;;;;;;;6.28;2.92;;;;;;;23.14;100.00;99542.69;5089756;28;20035;-62
2023/07/12 02:03:50;;;;;;;6.82;2.85;;;;;;;23.12;100.00;99541.97;5077317;28;20140;-63
2023/07/12 02:06:15;;;;;;;5.70;2.35;;;;;;;23.14;100.00;99534.53;5069557;28;20021;-63
2023/07/12 02:08:42;;;;;;;4.30;2.45;;;;;;;23.12;100.00;99539.25;5080472;28;20103;-64
2023/07/12 02:11:08;;;;;;;5.10;2.95;;;;;;;23.11;100.00;99537.50;5089933;28;20059;-63
2023/07/12 02:13:33;;;;;;;9.38;2.60;;;;;;;23.11;100.00;99526.66;5070609;28;20164;-63
2023/07/12 02:15:58;;;;;;;4.32;2.47;;;;;;;23.12;100.00;99525.69;5070657;28;20024;-63
2023/07/12 02:18:24;;;;;;;5.32;2.70;;;;;;;23.08;100.00;99524.22;5063505;28;20033;-63
2023/07/12 02:20:49;;;;;;;6.35;2.67;;;;;;;23.11;100.00;99523.09;5069780;28;20517;-63
2023/07/12 02:23:15;;;;;;;6.88;3.33;;;;;;;23.12;100.00;99535.66;5080667;28;20039;-64
2023/07/12 02:25:41;;;;;;;7.75;2.92;;;;;;;23.06;100.00;99519.94;5052923;28;20070;-64
2023/07/12 02:28:07;;;;;;;6.78;2.90;;;;;;;23.07;100.00;99527.94;5048487;28;20060;-64
2023/07/12 02:30:32;;;;;;;6.43;3.15;;;;;;;23.11;100.00;99528.53;5059182;28;20306;-64
2023/07/12 02:32:58;;;;;;;7.18;2.95;;;;;;;23.13;100.00;99518.41;5067948;28;20052;-63
2023/07/12 02:35:27;;;;;;;6.22;3.08;;;;;;;23.08;100.00;99524.22;5064914;28;20029;-64
2023/07/12 02:37:54;;;;;;;6.95;2.80;;;;;;;23.10;100.00;99522.22;5067468;28;20025;-64
2023/07/12 02:40:20;;;;;;;7.10;3.00;;;;;;;23.05;100.00;99519.09;5069047;28;20032;-64
2023/07/12 02:42:45;;;;;;;4.85;2.47;;;;;;;23.06;100.00;99522.66;5069066;28;20021;-64
2023/07/12 02:45:10;;;;;;;7.05;3.00;;;;;;;23.07;100.00;99521.66;5069510;28;20024;-64
2023/07/12 02:47:36;;;;;;;7.18;2.78;;;;;;;23.04;100.00;99521.94;5068360;28;20032;-64
2023/07/12 02:50:03;;;;;;;7.50;3.15;;;;;;;23.02;100.00;99530.22;5068514;28;20028;-64
2023/07/12 02:52:29;;;;;;;5.75;2.75;;;;;;;22.96;100.00;99527.22;5068796;28;20042;-65
2023/07/12 02:54:54;;;;;;;3.85;2.45;;;;;;;22.97;100.00;99523.50;5067827;28;20032;-64
2023/07/12 02:57:20;;;;;;;6.90;3.40;;;;;;;22.93;100.00;99522.91;5068552;28;20020;-64
2023/07/12 02:59:45;;;;;;;12.98;3.63;;;;;;;22.86;100.00;99529.91;5067805;28;20491;-64
2023/07/12 03:02:12;;;;;;;6.30;3.45;;;;;;;22.89;100.00;99526.91;5069104;28;20101;-64
2023/07/12 03:04:37;;;;;;;6.57;3.00;;;;;;;22.89;100.00;99532.34;5088331;28;20491;-64
2023/07/12 03:07:03;;;;;;;6.53;2.95;;;;;;;22.93;100.00;99525.63;5088933;28;20176;-64
2023/07/12 03:09:29;;;;;;;5.05;2.63;;;;;;;22.91;100.00;99522.22;5089654;28;20032;-64
2023/07/12 03:11:55;;;;;;;20.02;3.80;;;;;;;22.87;100.00;99519.91;5089046;28;20080;-64
2023/07/12 03:14:21;;;;;;;9.20;3.08;;;;;;;22.92;100.00;99528.47;5087815;28;20652;-64
2023/07/12 03:16:47;;;;;;;17.33;3.67;;;;;;;22.88;100.00;99517.03;5088807;28;20031;-64
2023/07/12 03:19:14;;;;;;;7.00;3.63;;;;;;;22.94;100.00;99527.34;5087442;28;20487;-64
2023/07/12 03:21:39;;;;;;;8.23;3.17;;;;;;;22.96;100.00;99536.22;5087611;28;20020;-64
2023/07/12 03:24:06;;;;;;;8.43;2.97;;;;;;;22.92;100.00;99540.19;5087923;28;20023;-65
2023/07/12 03:26:32;;;;;;;9.63;3.38;;;;;;;22.92;100.00;99542.91;5085084;28;20028;-64
2023/07/12 03:28:58;;;;;;;7.38;3.42;;;;;;;22.91;100.00;99560.19;5072471;28;20051;-64
2023/07/12 03:31:25;;;;;;;6.80;3.85;;;;;;;22.93;100.00;99568.19;5088411;28;20032;-64
2023/07/12 03:33:50;;;;;;;6.07;3.47;;;;;;;22.90;100.00;99580.16;5088459;28;20727;-64
2023/07/12 03:36:18;;;;;;;7.40;3.90;;;;;;;22.95;100.00;99591.44;5087286;28;20039;-64
2023/07/12 03:38:43;;;;;;;6.55;3.33;;;;;;;22.97;100.00;99600.31;5089254;28;20036;-64
2023/07/12 03:41:11;;;;;;;5.35;3.25;;;;;;;22.99;100.00;99608.31;5087516;28;20039;-63
2023/07/12 03:43:37;;;;;;;9.60;3.80;;;;;;;22.99;100.00;99598.34;5089037;28;20476;-64
2023/07/12 03:46:03;;;;;;;7.13;3.38;;;;;;;22.98;100.00;99596.59;5088581;28;20032;-64
2023/07/12 03:48:30;;;;;;;5.53;3.20;;;;;;;22.98;100.00;99588.47;5087327;28;20069;-65
2023/07/12 03:50:55;;;;;;;6.95;3.33;;;;;;;23.02;100.00;99584.50;5087370;28;20032;-64
2023/07/12 03:53:21;;;;;;;6.28;3.33;;;;;;;23.05;100.00;99589.63;5085994;28;20050;-64
2023/07/12 03:55:48;;;;;;;8.88;3.85;;;;;;;23.06;100.00;99585.91;5079742;28;20052;-64
2023/07/12 03:58:22;;;;;;;8.90;3.65;;;;;;;23.05;100.00;99594.19;5086554;28;20044;-64
2023/07/12 04:00:49;;;;;;;9.52;3.35;;;;;;;23.09;100.00;99607.38;5090124;28;20399;-64
2023/07/12 04:03:16;;;;;;;7.57;3.40;;;;;;;23.11;100.00;99616.19;5091778;28;20055;-64
2023/07/12 04:05:42;;;;;;;6.35;3.17;;;;;;;23.12;100.00;99615.22;5092495;28;20115;-64
2023/07/12 04:08:10;;;;;;;8.82;3.90;;;;;;;23.14;100.00;99609.66;5089486;28;20017;-64
2023/07/12 04:10:36;;;;;;;7.70;3.50;;;;;;;23.15;100.00;99627.63;5092474;28;20491;-63
2023/07/12 04:13:02;;;;;;;6.35;3.45;;;;;;;23.16;100.00;99624.78;5091768;28;20034;-64
2023/07/12 04:15:27;;;;;;;11.20;3.67;;;;;;;23.24;100.00;99627.66;5090260;28;20027;-64
2023/07/12 04:17:53;;;;;;;5.93;3.33;;;;;;;23.28;100.00;99637.28;5088716;28;20717;-64
2023/07/12 04:20:19;;;;;;;6.10;3.50;;;;;;;23.26;100.00;99631.13;5089265;28;20391;-64
2023/07/12 04:22:48;;;;;;;7.28;3.50;;;;;;;23.23;100.00;99642.25;5089353;28;20660;-64
2023/07/12 04:25:14;;;;;;;9.15;3.50;;;;;;;23.22;100.00;99655.94;5089710;28;20423;-63
2023/07/12 04:27:39;;;;;;;7.57;4.13;;;;;;;23.26;100.00;99668.25;5088337;28;20126;-64
2023/07/12 04:30:08;;;;;;;8.05;3.30;;;;;;;23.27;100.00;99659.13;5088916;28;20148;-64
2023/07/12 04:32:34;;;;;;;6.38;3.38;;;;;;;23.26;100.00;99658.28;5090685;28;20032;-64
2023/07/12 04:35:00;;;;;;;8.25;3.67;;;;;;;23.26;100.00;99646.53;5089998;28;20044;-64
2023/07/12 04:37:25;;;;;;;7.53;3.40;;;;;;;23.27;100.00;99660.00;5090851;28;20090;-64
2023/07/12 04:39:51;;;;;;;6.50;3.58;;;;;;;23.32;100.00;99665.88;5087901;28;20077;-63
2023/07/12 04:42:16;;;;;;;7.03;3.50;;;;;;;23.30;100.00;99662.44;5090527;28;20024;-64
2023/07/12 04:44:42;;;;;;;7.13;3.67;;;;;;;23.29;100.00;99671.56;5090927;28;20042;-64
2023/07/12 04:47:07;;;;;;;8.07;4.32;;;;;;;23.38;100.00;99673.47;5090109;28;20089;-63
2023/07/12 04:49:33;;;;;;;8.40;4.47;;;;;;;23.41;100.00;99673.19;5090207;28;20028;-64
2023/07/12 04:51:59;;;;;;;8.23;4.38;;;;;;;23.42;100.00;99666.78;5090130;28;20086;-64
2023/07/12 04:54:25;;;;;;;8.57;4.22;;;;;;;23.49;100.00;99668.91;5089275;28;20020;-64
2023/07/12 04:56:50;;;;;;;8.88;3.58;;;;;;;23.53;100.00;99675.75;5070861;28;20031;-65
2023/07/12 04:59:15;;;;;;;8.32;3.55;;;;;;;23.62;100.00;99685.81;5090407;28;20049;-64
2023/07/12 05:01:41;;;;;;;12.38;4.75;;;;;;;23.69;100.00;99693.25;5089909;28;20012;-64
2023/07/12 05:04:07;;;;;;;6.40;3.75;;;;;;;23.75;100.00;99694.53;5091500;28;20079;-65
2023/07/12 05:06:33;;;;;;;6.38;3.78;;;;;;;23.79;100.00;99701.44;5089917;28;20020;-64
2023/07/12 05:08:59;;;;;;;8.98;3.80;;;;;;;23.83;100.00;99691.97;5082399;28;20548;-64
2023/07/12 05:11:24;;;;;;;8.77;3.85;;;;;;;23.89;100.00;99702.28;5081067;28;20024;-65
2023/07/12 05:13:49;;;;;;;8.07;3.65;;;;;;;23.92;100.00;99699.28;5076635;28;20372;-64
2023/07/12 05:16:15;;;;;;;8.38;3.33;;;;;;;23.98;100.00;99704.19;5087583;28;20024;-65
2023/07/12 05:18:41;;;;;;;12.35;3.97;;;;;;;24.00;100.00;99696.75;5085843;28;20044;-64
2023/07/12 05:21:06;;;;;;;7.40;3.80;;;;;;;24.06;100.00;99721.50;5083364;28;20058;-64
2023/07/12 05:23:31;;;;;;;9.32;4.55;;;;;;;24.14;100.00;99715.34;5086284;28;20463;-64
2023/07/12 05:25:57;;;;;;;10.55;4.05;;;;;;;24.16;100.00;99714.22;5081519;28;20104;-64
2023/07/12 05:28:22;;;;;;;8.00;4.07;;;;;;;24.12;100.00;99717.34;5084037;28;20054;-65
2023/07/12 05:30:48;;;;;;;8.43;3.78;;;;;;;24.16;100.00;99716.94;5082785;28;20051;-64
2023/07/12 05:33:14;;;;;;;8.95;3.35;;;;;;;24.20;100.00;99725.66;5079376;28;20032;-65
2023/07/12 05:35:40;;;;;;;10.00;4.32;;;;;;;24.23;100.00;99725.38;5089220;28;20483;-65
2023/07/12 05:38:06;;;;;;;8.18;3.90;;;;;;;24.26;100.00;99725.09;5090692;28;20047;-64
2023/07/12 05:40:31;;;;;;;9.00;4.13;;;;;;;24.29;100.00;99724.78;5088934;28;20020;-64
2023/07/12 05:42:57;;;;;;;12.00;4.10;;;;;;;24.24;100.00;99724.38;5089950;28;20539;-65
2023/07/12 05:45:23;;;;;;;9.98;4.18;;;;;;;24.31;100.00;99730.94;5088899;28;20431;-65
2023/07/12 05:47:49;;;;;;;8.68;4.00;;;;;;;24.34;100.00;99730.66;5089958;28;20053;-64
2023/07/12 05:50:16;;;;;;;6.57;4.05;;;;;;;24.35;100.00;99724.22;5089744;28;20123;-64
2023/07/12 05:52:42;;;;;;;10.18;3.85;;;;;;;24.35;100.00;99727.78;5083784;28;20062;-64
2023/07/12 05:55:10;;;;;;;9.02;3.67;;;;;;;24.35;100.00;99735.09;5083067;28;20055;-64
2023/07/12 05:57:35;;;;;;;9.82;4.30;;;;;;;24.33;100.00;99726.25;5077115;28;20046;-65
2023/07/12 06:00:02;;;;;;;7.85;3.88;;;;;;;24.29;100.00;99730.22;5085375;28;20024;-65
2023/07/12 06:02:31;;;;;;;12.35;4.90;;;;;;;24.29;100.00;99724.78;5077657;28;20031;-65
2023/07/12 06:04:57;;;;;;;8.55;3.80;;;;;;;24.30;100.00;99715.66;5071966;28;20110;-64
2023/07/12 06:07:22;;;;;;;9.90;4.30;;;;;;;24.36;100.00;99720.50;5069630;28;20465;-64
2023/07/12 06:09:48;;;;;;;9.98;4.13;;;;;;;24.38;100.00;99724.78;5079791;28;20093;-64
2023/07/12 06:12:13;;;;;;;7.65;4.13;;;;;;;24.50;100.00;99717.34;5089223;28;20091;-65
2023/07/12 06:14:39;;;;;;;9.40;4.15;;;;;;;24.62;100.00;99727.06;5088782;28;20028;-65
2023/07/12 06:17:05;;;;;;;8.65;4.18;;;;;;;24.73;100.00;99723.38;5072701;28;20115;-65
2023/07/12 06:19:31;;;;;;;8.02;4.28;;;;;;;24.81;100.00;99732.47;5084258;28;20030;-65
2023/07/12 06:21:56;;;;;;;9.68;4.82;;;;;;;24.78;100.00;99729.22;5087862;28;20758;-65
2023/07/12 06:24:22;;;;;;;9.25;4.38;;;;;;;24.81;100.00;99731.66;5087445;28;20035;-64
2023/07/12 06:26:47;;;;;;;11.25;3.97;;;;;;;24.84;100.00;99734.94;5088072;28;20034;-64
2023/07/12 06:29:13;;;;;;;7.72;3.85;;;;;;;24.88;100.00;99739.06;5087998;28;20050;-64
2023/07/12 06:31:38;;;;;;;7.32;4.32;;;;;;;24.96;99.85;99735.63;5081801;28;20029;-65
2023/07/12 06:34:04;;;;;;;6.57;4.05;;;;;;;24.98;99.50;99742.63;5076699;28;20036;-64
2023/07/12 06:36:32;;;;;;;9.13;4.35;;;;;;;25.01;98.96;99745.03;5086853;28;20059;-65
2023/07/12 06:38:57;;;;;;;9.70;4.20;;;;;;;25.02;98.93;99752.22;5071551;28;20036;-64
2023/07/12 06:41:23;;;;;;;9.60;5.00;;;;;;;25.13;98.75;99754.75;5087026;28;20024;-64
2023/07/12 06:43:48;;;;;;;9.07;4.50;;;;;;;25.20;97.97;99755.03;5087405;28;20032;-65
2023/07/12 06:46:14;;;;;;;7.88;4.28;;;;;;;25.20;97.69;99766.78;5081202;28;20028;-64
2023/07/12 06:48:40;;;;;;;8.00;4.53;;;;;;;25.29;97.14;99765.00;5077748;28;20038;-64
2023/07/12 06:51:06;;;;;;;7.55;3.92;;;;;;;25.42;97.41;99762.88;5086368;28;20034;-64
2023/07/12 06:53:31;;;;;;;10.43;4.07;;;;;;;25.56;96.17;99762.38;5088165;28;20032;-64
2023/07/12 06:55:56;;;;;;;10.95;4.55;;;;;;;25.66;94.96;99769.50;5087738;28;20028;-64
2023/07/12 06:58:22;;;;;;;11.60;4.00;;;;;;;25.71;94.17;99764.44;5086792;28;20028;-65
2023/07/12 07:00:48;;;;;;;6.90;4.00;;;;;;;25.69;94.45;99761.00;5081175;28;20117;-64
2023/07/12 07:03:15;;;;;;;7.15;3.80;;;;;;;25.70;93.46;99754.53;5086361;28;20052;-65
2023/07/12 07:05:47;;;;;;;8.00;4.05;;;;;;;25.71;93.28;99750.81;5086680;28;20658;-65
2023/07/12 07:08:15;;;;;;;7.90;4.65;;;;;;;25.85;93.63;99753.03;5072515;28;20032;-64
2023/07/12 07:10:42;;;;;;;7.43;4.03;;;;;;;26.00;93.67;99750.63;5078141;28;20032;-65
2023/07/12 07:13:08;;;;;;;10.20;4.30;;;;;;;26.24;92.54;99756.38;5073351;28;20036;-65
2023/07/12 07:15:34;;;;;;;9.40;3.85;;;;;;;26.40;90.85;99747.50;5077416;28;20100;-65
2023/07/12 07:18:00;;;;;;;6.47;3.53;;;;;;;26.46;88.63;99757.75;5076628;28;20119;-64
2023/07/12 07:20:26;;;;;;;8.27;4.07;;;;;;;26.54;87.14;99761.44;5070910;28;20020;-65
2023/07/12 07:22:52;;;;;;;7.90;3.92;;;;;;;26.68;87.06;99768.25;5082203;28;20035;-64
2023/07/12 07:25:17;;;;;;;8.02;4.57;;;;;;;26.81;86.47;99763.22;5069177;28;20101;-65
2023/07/12 07:27:42;;;;;;;10.10;4.03;;;;;;;27.00;85.61;99765.78;5075755;28;20387;-65
2023/07/12 07:30:08;;;;;;;10.95;3.65;;;;;;;27.40;85.30;99771.50;5068719;28;20067;-65
2023/07/12 07:32:34;;;;;;;9.40;3.63;;;;;;;27.77;81.33;99769.31;5070164;28;20233;-65
2023/07/12 07:34:59;;;;;;;8.38;3.40;;;;;;;28.18;78.80;99771.19;5082151;28;20028;-65
2023/07/12 07:37:25;;;;;;;9.60;4.00;;;;;;;28.05;77.04;99769.94;5070881;28;20120;-66
2023/07/12 07:39:50;;;;;;;8.25;3.35;;;;;;;28.26;77.43;99771.19;5077431;28;20092;-66
2023/07/12 07:42:16;;;;;;;7.75;3.40;;;;;;;28.38;76.76;99769.81;5087445;28;20090;-66
2023/07/12 07:44:41;;;;;;;6.28;3.28;;;;;;;28.63;74.57;99767.16;5071680;28;20035;-66
2023/07/12 07:47:08;;;;;;;6.00;3.13;;;;;;;28.69;73.47;99772.81;5076310;28;20024;-66
2023/07/12 07:49:34;;;;;;;4.03;2.42;;;;;;;28.84;71.34;99770.25;5086355;28;20070;-65
2023/07/12 07:51:59;;;;;;;5.90;2.60;;;;;;;28.92;69.86;99778.44;5088450;28;20123;-66
2023/07/12 07:54:25;;;;;;;6.78;2.50;;;;;;;28.90;70.39;99780.50;5087828;28;20024;-67
2023/07/12 07:56:50;;;;;;;3.65;2.30;;;;;;;29.25;69.69;99780.16;5088406;28;20028;-66
2023/07/12 07:59:16;;;;;;;4.55;2.45;;;;;;;29.51;67.45;99780.78;5083128;28;20028;-66
2023/07/12 08:01:41;;;;;;;5.53;2.95;;;;;;;30.08;65.32;99785.06;5083240;28;20020;-66
2023/07/12 08:04:08;;;;;;;4.10;2.08;;;;;;;30.45;64.63;99787.06;5078507;28;20055;-65
2023/07/12 08:06:35;;;;;;;6.85;2.67;;;;;;;30.73;58.29;99786.34;5073716;28;20110;-66
2023/07/12 08:09:01;;;;;;;6.40;2.42;;;;;;;31.16;58.21;99775.69;5078946;28;20165;-66
2023/07/12 08:11:26;;;;;;;7.20;2.28;;;;;;;31.49;58.46;99763.34;5085021;28;20486;-65
2023/07/12 08:13:52;;;;;;;5.35;2.20;;;;;;;31.53;56.11;99784.78;5078297;28;20115;-67
2023/07/12 08:16:17;;;;;;;6.10;2.30;;;;;;;31.15;58.90;99785.00;5086515;28;20077;-66
2023/07/12 08:18:43;;;;;;;4.78;1.95;;;;;;;30.17;58.55;99794.06;5087952;28;20031;-65
2023/07/12 08:21:08;;;;;;;6.60;2.40;;;;;;;29.56;62.75;99794.81;5088110;28;20749;-66
2023/07/12 08:23:34;;;;;;;5.85;2.30;;;;;;;29.24;64.11;99800.38;5087139;28;20034;-65
2023/07/12 08:25:59;;;;;;;3.78;2.00;;;;;;;28.99;65.76;99801.41;5087156;28;20667;-65
2023/07/12 08:28:25;;;;;;;4.63;2.35;;;;;;;28.53;65.69;99799.31;5086707;28;20708;-64
2023/07/12 08:30:50;;;;;;;3.90;2.15;;;;;;;29.01;67.08;99799.34;5087527;28;20020;-65
2023/07/12 08:33:16;;;;;;;5.57;2.38;;;;;;;29.87;64.54;99797.66;5087324;28;20114;-66
2023/07/12 08:35:41;;;;;;;6.65;2.05;;;;;;;30.77;62.67;99795.94;5086779;28;20070;-65
2023/07/12 08:38:07;;;;;;;5.30;2.28;;;;;;;30.83;60.73;99797.97;5087250;28;20020;-66
2023/07/12 08:40:38;;;;;;;4.10;2.30;;;;;;;31.06;61.03;99808.06;5080581;28;20555;-66
2023/07/12 08:43:11;;;;;;;4.43;1.77;;;;;;;31.16;60.72;99805.94;5086625;28;20626;-66
2023/07/12 08:45:36;;;;;;;5.40;2.40;;;;;;;31.21;60.53;99811.72;5087933;28;20769;-66
2023/07/12 08:48:07;;;;;;;3.33;2.03;;;;;;;31.36;59.37;99809.88;5090659;28;20059;-66
2023/07/12 08:50:43;;;;;;;4.18;2.03;;;;;;;30.92;58.17;99800.66;5091178;28;20028;-65
2023/07/12 08:53:11;;;;;;;4.95;1.77;;;;;;;30.58;61.33;99821.13;5089543;28;20028;-66
2023/07/12 08:55:37;;;;;;;6.93;2.05;;;;;;;31.07;61.36;99826.28;5090182;28;20032;-67
2023/07/12 08:58:15;;;;;;;5.28;2.30;;;;;;;31.87;57.09;99823.63;5089785;28;20035;-66
2023/07/12 09:00:43;;;;;;;5.68;2.35;;;;;;;31.90;56.69;99819.63;5089834;28;20628;-66
2023/07/12 09:03:08;;;;;;;6.80;3.33;;;;;;;31.89;56.69;99816.03;5088633;28;20541;-66
2023/07/12 09:05:34;;;;;;;5.32;2.30;;;;;;;31.57;56.32;99832.00;5090339;28;20036;-66
2023/07/12 09:08:10;;;;;;;3.40;1.60;;;;;;;31.37;57.12;99828.94;5090807;28;20024;-66
2023/07/12 09:10:44;;;;;;;5.72;2.10;;;;;;;31.06;57.00;99827.31;5091257;28;20028;-66
2023/07/12 09:13:12;;;;;;;5.13;1.95;;;;;;;30.78;58.45;99838.88;5090287;28;20028;-66
2023/07/12 09:15:43;;;;;;;3.00;1.90;;;;;;;30.48;59.71;99836.13;5091973;28;20032;-65
2023/07/12 09:18:21;;;;;;;3.95;1.52;;;;;;;30.29;58.54;99831.97;5090792;28;20036;-66
2023/07/12 09:20:50;;;;;;;2.95;1.75;;;;;;;30.44;56.91;99837.53;5075496;28;20024;-65
2023/07/12 09:23:15;;;;;;;5.00;1.83;;;;;;;30.34;58.53;99835.03;5070543;28;20035;-65
2023/07/12 09:25:47;;;;;;;3.60;1.90;;;;;;;30.30;58.65;99841.03;5070824;28;20020;-66
2023/07/12 09:28:15;;;;;;;3.42;1.70;;;;;;;30.39;56.95;99835.34;5087840;28;20032;-65
2023/07/12 09:30:41;;;;;;;4.82;2.00;;;;;;;30.49;57.30;99835.97;5089473;28;20073;-66
2023/07/12 09:33:17;;;;;;;4.90;1.75;;;;;;;30.36;56.82;99841.16;5088047;28;20498;-66
2023/07/12 09:35:47;;;;;;;2.45;1.52;;;;;;;30.60;56.94;99840.16;5089245;28;20024;-66
2023/07/12 09:38:24;;;;;;;2.55;1.42;;;;;;;31.04;55.21;99832.16;5089084;28;20066;-66
2023/07/12 09:40:52;;;;;;;5.95;1.80;;;;;;;31.33;53.05;99832.25;5090404;28;20024;-66
2023/07/12 09:43:19;;;;;;;4.78;1.55;;;;;;;31.86;51.55;99823.81;5090902;28;20028;-66
2023/07/12 09:45:55;;;;;;;3.67;1.42;;;;;;;32.46;50.04;99818.91;5091026;28;20039;-67
2023/07/12 09:48:42;;;;;;;6.95;1.88;;;;;;;33.06;50.62;99824.88;5084285;28;20032;-66
2023/07/12 09:51:26;;;;;;;3.67;1.60;;;;;;;33.41;47.89;99827.69;5071650;28;20035;-67
2023/07/12 09:53:55;;;;;;;3.03;1.77;;;;;;;33.60;48.53;99827.00;5082495;28;20034;-67
2023/07/12 09:56:38;;;;;;;4.18;1.80;;;;;;;33.69;48.32;99823.06;5070748;28;20665;-66
2023/07/12 09:59:11;;;;;;;;;;;;;;;33.53;44.54;99824.22;5077144;28;20096;-67
2023/07/12 10:01:41;;;;;;;4.45;1.50;;;;;;;33.71;47.79;99830.06;5078264;28;19917;-67
2023/07/12 10:04:25;;;;;;;4.28;1.70;;;;;;;33.48;46.86;99818.44;5068364;28;20667;-67
2023/07/12 10:06:52;;;;;;;4.22;2.13;;;;;;;33.10;47.48;99819.78;5070205;28;21107;-66
2023/07/12 10:09:34;;;;;;;7.03;1.67;;;;;;;32.66;48.60;99822.72;5087852;28;20040;-65
2023/07/12 10:12:25;;;;;;;3.15;1.20;;;;;;;32.58;50.33;99824.75;5089353;28;20028;-65
2023/07/12 10:14:53;;;;;;;3.85;2.08;;;;;;;32.93;48.93;99821.13;5079238;28;20212;-67
2023/07/12 10:17:30;;;;;;;5.13;1.70;;;;;;;32.94;50.17;99822.81;5081328;28;20807;-67
2023/07/12 10:19:56;;;;;;;3.80;1.42;;;;;;;32.53;50.31;99819.84;5074957;28;20024;-66
2023/07/12 10:22:30;;;;;;;4.53;1.80;;;;;;;32.24;50.52;99816.28;5070981;28;20050;-66
2023/07/12 10:24:58;;;;;;;2.63;1.35;;;;;;;32.20;50.91;99810.28;5087664;28;20012;-66
2023/07/12 10:27:28;;;;;;;4.68;1.75;;;;;;;31.96;51.11;99829.88;5087813;28;20422;-65
2023/07/12 10:30:28;;;;;;;5.25;1.30;;;;;;;31.61;52.84;99827.84;5087627;28;20024;-67
2023/07/12 10:33:15;;;;;;;4.82;1.50;;;;;;;31.30;52.89;99821.63;5069803;28;20102;-66
2023/07/12 10:35:51;;;;;;;3.65;1.30;;;;;;;31.48;51.71;99816.66;5088276;28;20384;-66
2023/07/12 10:38:18;;;;;;;3.20;1.90;;;;;;;31.61;51.09;99817.72;5086729;28;20028;-66
2023/07/12 10:40:56;;;;;;;3.38;1.42;;;;;;;31.89;50.27;99815.19;5085975;28;20090;-65
2023/07/12 10:43:43;;;;;;;7.47;1.40;;;;;;;31.71;51.90;99814.66;5070084;28;20028;-66
2023/07/12 10:46:24;;;;;;;3.03;1.35;;;;;;;31.39;50.81;99820.50;5069157;28;20032;-66
2023/07/12 10:48:51;;;;;;;4.60;1.50;;;;;;;31.29;51.69;99819.88;5080068;28;20039;-66
2023/07/12 10:51:29;;;;;;;4.45;1.30;;;;;;;31.35;51.67;99809.03;5088163;28;20034;-66
2023/07/12 10:53:55;;;;;;;3.88;1.83;;;;;;;31.54;51.01;99815.88;5088639;28;20081;-66
2023/07/12 10:56:35;;;;;;;4.20;1.60;;;;;;;31.27;50.55;99811.81;5087894;28;20434;-66
2023/07/12 10:59:04;;;;;;;2.65;1.38;;;;;;;31.22;52.16;99806.03;5087342;28;20035;-66
2023/07/12 11:01:41;;;;;;;4.20;1.80;;;;;;;31.09;52.57;99799.50;5076731;28;20390;-65
2023/07/12 11:04:13;;;;;;;3.30;1.27;;;;;;;31.35;52.83;99803.53;5069115;28;20093;-64
2023/07/12 11:06:55;;;;;;;2.10;1.60;;;;;;;31.64;52.37;99808.22;5070344;28;20115;-65
2023/07/12 11:09:21;;;;;;;4.10;1.23;;;;;;;31.81;51.36;99804.25;5088027;28;20600;-66
2023/07/12 11:11:58;;;;;;;3.03;1.30;;;;;;;31.74;51.94;99803.28;5080340;28;20028;-65
2023/07/12 11:14:25;;;;;;;4.15;1.35;;;;;;;31.49;50.89;99790.84;5086495;28;20036;-64
2023/07/12 11:17:06;;;;;;;2.50;1.27;;;;;;;31.44;52.63;99802.41;5078608;28;20134;-65
2023/07/12 11:19:40;;;;;;;4.25;1.67;;;;;;;31.59;53.20;99795.03;5084042;28;20180;-66
2023/07/12 11:22:22;;;;;;;3.58;1.60;;;;;;;31.53;52.87;99794.94;5083852;28;20522;-65
2023/07/12 11:24:48;;;;;;;4.80;1.50;;;;;;;31.31;51.47;99795.81;5068180;28;20032;-65
2023/07/12 11:27:32;;;;;;;4.50;1.45;;;;;;;31.28;52.91;99779.69;5079851;28;20035;-66
2023/07/12 11:30:26;;;;;;;4.07;1.48;;;;;;;31.22;53.31;99780.47;5067541;28;20024;-65
2023/07/12 11:33:00;;;;;;;4.18;1.55;;;;;;;31.12;52.34;99779.88;5080846;28;20031;-65